sensor_id;sensor_type;location;lat;lon;timestamp;pressure;altitude;pressure_sealevel;temperature;humidity
74218;BME280;62579;47.288;18.646;2023-03-16T00:03:54;99911.94;;;2.77;60.28
74218;BME280;62579;47.288;18.646;2023-03-16T00:06:20;99915.84;;;2.76;60.27
74218;BME280;62579;47.288;18.646;2023-03-16T00:08:45;99908.72;;;2.82;59.66
74218;BME280;62579;47.288;18.646;2023-03-16T00:11:10;99919.94;;;2.90;59.69
74218;BME280;62579;47.288;18.646;2023-03-16T00:13:36;99924.69;;;2.86;59.99
74218;BME280;62579;47.288;18.646;2023-03-16T00:16:01;99916.31;;;2.84;60.00
74218;BME280;62579;47.288;18.646;2023-03-16T00:18:29;99928.25;;;2.83;60.00
74218;BME280;62579;47.288;18.646;2023-03-16T00:20:59;99925.56;;;2.83;60.03
74218;BME280;62579;47.288;18.646;2023-03-16T00:23:26;99927.53;;;2.82;59.92
74218;BME280;62579;47.288;18.646;2023-03-16T00:25:52;99929.00;;;2.83;59.87
74218;BME280;62579;47.288;18.646;2023-03-16T00:28:18;99931.69;;;2.83;60.23
74218;BME280;62579;47.288;18.646;2023-03-16T00:33:12;99928.41;;;2.79;60.18
74218;BME280;62579;47.288;18.646;2023-03-16T00:35:38;99942.25;;;2.78;60.54
74218;BME280;62579;47.288;18.646;2023-03-16T00:38:03;99934.50;;;2.80;60.23
74218;BME280;62579;47.288;18.646;2023-03-16T00:40:28;99935.69;;;2.79;60.34
74218;BME280;62579;47.288;18.646;2023-03-16T00:42:54;99943.94;;;2.84;60.35
74218;BME280;62579;47.288;18.646;2023-03-16T00:53:05;99948.84;;;2.77;60.83
74218;BME280;62579;47.288;18.646;2023-03-16T00:55:30;99944.91;;;2.69;61.06
74218;BME280;62579;47.288;18.646;2023-03-16T00:57:56;99953.16;;;2.74;60.96
74218;BME280;62579;47.288;18.646;2023-03-16T01:00:21;99956.37;;;2.69;61.13
74218;BME280;62579;47.288;18.646;2023-03-16T01:02:49;99952.91;;;2.60;61.35
74218;BME280;62579;47.288;18.646;2023-03-16T01:05:14;99954.41;;;2.61;61.63
74218;BME280;62579;47.288;18.646;2023-03-16T01:07:39;99951.22;;;2.53;61.98
74218;BME280;62579;47.288;18.646;2023-03-16T01:10:05;99953.72;;;2.48;62.28
74218;BME280;62579;47.288;18.646;2023-03-16T01:12:31;99945.22;;;2.49;62.05
74218;BME280;62579;47.288;18.646;2023-03-16T01:14:57;99953.72;;;2.48;62.38
74218;BME280;62579;47.288;18.646;2023-03-16T01:17:23;99967.09;;;2.38;62.73
74218;BME280;62579;47.288;18.646;2023-03-16T01:19:48;99955.66;;;2.25;63.32
74218;BME280;62579;47.288;18.646;2023-03-16T01:22:14;99964.47;;;2.26;63.34
74218;BME280;62579;47.288;18.646;2023-03-16T01:24:39;99960.75;;;2.11;64.01
74218;BME280;62579;47.288;18.646;2023-03-16T01:27:05;99962.06;;;2.06;64.50
74218;BME280;62579;47.288;18.646;2023-03-16T01:29:31;99966.28;;;1.95;64.86
74218;BME280;62579;47.288;18.646;2023-03-16T01:31:57;99957.81;;;1.96;64.96
74218;BME280;62579;47.288;18.646;2023-03-16T01:34:22;99960.09;;;1.85;65.31
74218;BME280;62579;47.288;18.646;2023-03-16T01:36:48;99968.59;;;1.71;65.71
74218;BME280;62579;47.288;18.646;2023-03-16T01:39:13;99961.19;;;1.75;65.43
74218;BME280;62579;47.288;18.646;2023-03-16T01:41:39;99967.09;;;1.70;65.82
74218;BME280;62579;47.288;18.646;2023-03-16T01:44:06;99963.25;;;1.71;65.82
74218;BME280;62579;47.288;18.646;2023-03-16T01:46:31;99969.56;;;1.77;65.77
74218;BME280;62579;47.288;18.646;2023-03-16T01:49:01;99974.22;;;1.64;66.37
74218;BME280;62579;47.288;18.646;2023-03-16T01:53:56;99979.88;;;1.66;66.65
74218;BME280;62579;47.288;18.646;2023-03-16T01:56:24;99984.72;;;1.58;67.02
74218;BME280;62579;47.288;18.646;2023-03-16T01:58:50;99989.97;;;1.62;67.11
74218;BME280;62579;47.288;18.646;2023-03-16T02:01:16;99984.53;;;1.53;67.52
74218;BME280;62579;47.288;18.646;2023-03-16T02:03:41;99987.97;;;1.53;67.59
74218;BME280;62579;47.288;18.646;2023-03-16T02:06:09;99995.03;;;1.60;67.36
74218;BME280;62579;47.288;18.646;2023-03-16T02:08:36;99993.94;;;1.57;67.45
74218;BME280;62579;47.288;18.646;2023-03-16T02:11:02;99996.00;;;1.53;67.53
74218;BME280;62579;47.288;18.646;2023-03-16T02:13:28;99997.81;;;1.56;67.44
74218;BME280;62579;47.288;18.646;2023-03-16T02:15:57;100007.81;;;1.56;67.58
74218;BME280;62579;47.288;18.646;2023-03-16T02:18:23;100005.34;;;1.61;67.59
74218;BME280;62579;47.288;18.646;2023-03-16T02:20:54;100008.97;;;1.55;68.05
74218;BME280;62579;47.288;18.646;2023-03-16T02:23:21;100015.50;;;1.54;68.37
74218;BME280;62579;47.288;18.646;2023-03-16T02:28:14;100030.87;;;1.53;68.72
74218;BME280;62579;47.288;18.646;2023-03-16T02:30:43;100035.69;;;1.58;68.73
74218;BME280;62579;47.288;18.646;2023-03-16T02:33:08;100032.16;;;1.61;68.67
74218;BME280;62579;47.288;18.646;2023-03-16T02:35:34;100027.66;;;1.58;68.97
74218;BME280;62579;47.288;18.646;2023-03-16T02:37:59;100044.69;;;1.64;68.81
74218;BME280;62579;47.288;18.646;2023-03-16T02:40:29;100044.28;;;1.53;69.22
74218;BME280;62579;47.288;18.646;2023-03-16T02:43:06;100048.03;;;1.56;69.23
74218;BME280;62579;47.288;18.646;2023-03-16T02:45:34;100052.44;;;1.50;69.37
74218;BME280;62579;47.288;18.646;2023-03-16T02:48:02;100049.94;;;1.43;69.72
74218;BME280;62579;47.288;18.646;2023-03-16T02:50:31;100053.19;;;1.50;69.48
74218;BME280;62579;47.288;18.646;2023-03-16T02:52:56;100057.25;;;1.55;69.26
74218;BME280;62579;47.288;18.646;2023-03-16T02:55:21;100061.00;;;1.57;69.25
74218;BME280;62579;47.288;18.646;2023-03-16T02:57:47;100066.69;;;1.59;69.25
74218;BME280;62579;47.288;18.646;2023-03-16T03:00:12;100070.03;;;1.63;69.01
74218;BME280;62579;47.288;18.646;2023-03-16T03:02:41;100079.47;;;1.55;69.68
74218;BME280;62579;47.288;18.646;2023-03-16T03:05:06;100088.44;;;1.36;70.43
74218;BME280;62579;47.288;18.646;2023-03-16T03:07:31;100088.00;;;1.38;70.54
74218;BME280;62579;47.288;18.646;2023-03-16T03:09:57;100096.81;;;1.51;70.05
74218;BME280;62579;47.288;18.646;2023-03-16T03:12:22;100103.91;;;1.57;69.84
74218;BME280;62579;47.288;18.646;2023-03-16T03:14:47;100107.34;;;1.58;69.93
74218;BME280;62579;47.288;18.646;2023-03-16T03:17:12;100100.69;;;1.62;69.84
74218;BME280;62579;47.288;18.646;2023-03-16T03:19:38;100103.50;;;1.71;69.36
74218;BME280;62579;47.288;18.646;2023-03-16T03:22:04;100108.44;;;1.73;69.10
74218;BME280;62579;47.288;18.646;2023-03-16T03:24:30;100111.63;;;1.80;68.71
74218;BME280;62579;47.288;18.646;2023-03-16T03:26:56;100114.53;;;1.73;68.84
74218;BME280;62579;47.288;18.646;2023-03-16T03:29:24;100115.94;;;1.78;68.88
74218;BME280;62579;47.288;18.646;2023-03-16T03:31:49;100115.31;;;1.74;68.97
74218;BME280;62579;47.288;18.646;2023-03-16T03:34:15;100118.19;;;1.67;69.20
74218;BME280;62579;47.288;18.646;2023-03-16T03:36:40;100118.63;;;1.65;69.29
74218;BME280;62579;47.288;18.646;2023-03-16T03:39:05;100117.88;;;1.65;69.42
74218;BME280;62579;47.288;18.646;2023-03-16T03:41:31;100124.53;;;1.60;69.86
74218;BME280;62579;47.288;18.646;2023-03-16T03:43:57;100130.44;;;1.55;70.09
74218;BME280;62579;47.288;18.646;2023-03-16T03:46:23;100138.56;;;1.52;69.76
74218;BME280;62579;47.288;18.646;2023-03-16T03:48:48;100127.50;;;1.50;69.66
74218;BME280;62579;47.288;18.646;2023-03-16T03:51:13;100131.81;;;1.47;69.48
74218;BME280;62579;47.288;18.646;2023-03-16T03:53:38;100133.41;;;1.45;70.30
74218;BME280;62579;47.288;18.646;2023-03-16T03:56:03;100135.09;;;1.39;71.07
74218;BME280;62579;47.288;18.646;2023-03-16T03:58:29;100143.38;;;1.32;71.86
74218;BME280;62579;47.288;18.646;2023-03-16T04:00:54;100137.34;;;1.40;71.45
74218;BME280;62579;47.288;18.646;2023-03-16T04:03:19;100137.59;;;1.46;71.11
74218;BME280;62579;47.288;18.646;2023-03-16T04:05:45;100138.31;;;1.34;71.63
74218;BME280;62579;47.288;18.646;2023-03-16T04:08:11;100146.09;;;1.15;72.32
74218;BME280;62579;47.288;18.646;2023-03-16T04:10:36;100144.44;;;1.05;72.62
74218;BME280;62579;47.288;18.646;2023-03-16T04:13:01;100148.69;;;0.90;73.35
74218;BME280;62579;47.288;18.646;2023-03-16T04:15:26;100150.00;;;0.98;73.23
74218;BME280;62579;47.288;18.646;2023-03-16T04:17:51;100148.00;;;0.86;73.85
74218;BME280;62579;47.288;18.646;2023-03-16T04:20:17;100158.41;;;0.84;73.98
74218;BME280;62579;47.288;18.646;2023-03-16T04:22:44;100157.47;;;0.91;73.72
74218;BME280;62579;47.288;18.646;2023-03-16T04:25:10;100159.13;;;1.01;73.28
74218;BME280;62579;47.288;18.646;2023-03-16T04:27:35;100167.97;;;0.85;74.04
74218;BME280;62579;47.288;18.646;2023-03-16T04:30:04;100164.31;;;0.92;73.84
74218;BME280;62579;47.288;18.646;2023-03-16T04:32:30;100165.69;;;0.84;74.28
74218;BME280;62579;47.288;18.646;2023-03-16T04:34:55;100176.50;;;0.80;74.55
74218;BME280;62579;47.288;18.646;2023-03-16T04:37:21;100175.59;;;0.71;74.94
74218;BME280;62579;47.288;18.646;2023-03-16T04:39:46;100168.50;;;0.64;75.15
74218;BME280;62579;47.288;18.646;2023-03-16T04:42:11;100174.44;;;0.55;75.63
74218;BME280;62579;47.288;18.646;2023-03-16T04:44:36;100172.84;;;0.58;75.49
74218;BME280;62579;47.288;18.646;2023-03-16T04:47:08;100177.50;;;0.70;75.05
74218;BME280;62579;47.288;18.646;2023-03-16T04:49:33;100181.09;;;0.80;74.59
74218;BME280;62579;47.288;18.646;2023-03-16T04:51:58;100181.62;;;0.75;74.52
74218;BME280;62579;47.288;18.646;2023-03-16T04:54:24;100174.00;;;0.73;74.52
74218;BME280;62579;47.288;18.646;2023-03-16T04:56:50;100184.19;;;0.78;74.56
74218;BME280;62579;47.288;18.646;2023-03-16T04:59:16;100188.91;;;0.58;75.55
74218;BME280;62579;47.288;18.646;2023-03-16T05:01:41;100187.91;;;0.52;76.21
74218;BME280;62579;47.288;18.646;2023-03-16T05:04:07;100191.41;;;0.65;76.29
74218;BME280;62579;47.288;18.646;2023-03-16T05:06:32;100204.47;;;0.63;76.52
74218;BME280;62579;47.288;18.646;2023-03-16T05:08:58;100195.78;;;0.59;76.88
74218;BME280;62579;47.288;18.646;2023-03-16T05:11:23;100204.53;;;0.59;76.99
74218;BME280;62579;47.288;18.646;2023-03-16T05:13:49;100205.41;;;0.56;77.32
74218;BME280;62579;47.288;18.646;2023-03-16T05:16:14;100214.34;;;0.50;77.61
74218;BME280;62579;47.288;18.646;2023-03-16T05:18:39;100226.47;;;0.54;77.75
74218;BME280;62579;47.288;18.646;2023-03-16T05:21:04;100225.97;;;0.59;77.74
74218;BME280;62579;47.288;18.646;2023-03-16T05:23:29;100216.69;;;0.64;77.68
74218;BME280;62579;47.288;18.646;2023-03-16T05:25:55;100226.59;;;0.51;78.36
74218;BME280;62579;47.288;18.646;2023-03-16T05:28:23;100230.91;;;0.45;78.76
74218;BME280;62579;47.288;18.646;2023-03-16T05:30:49;100226.97;;;0.49;78.93
74218;BME280;62579;47.288;18.646;2023-03-16T05:33:15;100225.72;;;0.54;78.82
74218;BME280;62579;47.288;18.646;2023-03-16T05:35:40;100234.09;;;0.56;78.69
74218;BME280;62579;47.288;18.646;2023-03-16T05:38:06;100234.88;;;0.73;78.08
74218;BME280;62579;47.288;18.646;2023-03-16T05:40:33;100236.34;;;0.74;77.98
74218;BME280;62579;47.288;18.646;2023-03-16T05:42:59;100231.00;;;0.74;78.10
74218;BME280;62579;47.288;18.646;2023-03-16T05:45:24;100228.75;;;0.72;78.37
74218;BME280;62579;47.288;18.646;2023-03-16T05:47:50;100237.28;;;0.83;78.12
74218;BME280;62579;47.288;18.646;2023-03-16T05:50:16;100236.41;;;1.02;77.42
74218;BME280;62579;47.288;18.646;2023-03-16T05:52:42;100231.28;;;1.08;77.26
74218;BME280;62579;47.288;18.646;2023-03-16T05:55:11;100233.63;;;1.06;77.71
74218;BME280;62579;47.288;18.646;2023-03-16T05:57:36;100248.19;;;1.21;77.00
74218;BME280;62579;47.288;18.646;2023-03-16T06:00:03;100247.25;;;1.28;77.08
74218;BME280;62579;47.288;18.646;2023-03-16T06:02:37;100253.84;;;1.39;76.52
74218;BME280;62579;47.288;18.646;2023-03-16T06:05:02;100260.22;;;1.45;76.49
74218;BME280;62579;47.288;18.646;2023-03-16T06:07:28;100270.59;;;1.43;76.96
74218;BME280;62579;47.288;18.646;2023-03-16T06:09:53;100265.78;;;1.51;77.05
74218;BME280;62579;47.288;18.646;2023-03-16T06:12:18;100271.53;;;1.65;76.81
74218;BME280;62579;47.288;18.646;2023-03-16T06:14:43;100272.53;;;1.71;76.19
74218;BME280;62579;47.288;18.646;2023-03-16T06:17:08;100276.59;;;1.76;76.41
74218;BME280;62579;47.288;18.646;2023-03-16T06:19:34;100276.06;;;1.81;76.11
74218;BME280;62579;47.288;18.646;2023-03-16T06:21:59;100276.50;;;1.79;76.17
74218;BME280;62579;47.288;18.646;2023-03-16T06:24:24;100275.47;;;1.90;76.50
74218;BME280;62579;47.288;18.646;2023-03-16T06:26:49;100281.81;;;1.96;76.26
74218;BME280;62579;47.288;18.646;2023-03-16T06:29:14;100286.12;;;2.06;76.32
74218;BME280;62579;47.288;18.646;2023-03-16T06:31:40;100280.13;;;2.14;76.51
74218;BME280;62579;47.288;18.646;2023-03-16T06:34:05;100290.00;;;2.30;76.11
74218;BME280;62579;47.288;18.646;2023-03-16T06:36:30;100291.41;;;2.34;75.77
74218;BME280;62579;47.288;18.646;2023-03-16T06:38:55;100288.53;;;2.41;76.23
74218;BME280;62579;47.288;18.646;2023-03-16T06:41:20;100286.38;;;2.36;76.05
74218;BME280;62579;47.288;18.646;2023-03-16T06:43:46;100295.41;;;2.55;76.04
74218;BME280;62579;47.288;18.646;2023-03-16T06:46:11;100297.25;;;2.58;75.35
74218;BME280;62579;47.288;18.646;2023-03-16T06:48:36;100308.59;;;2.75;75.51
74218;BME280;62579;47.288;18.646;2023-03-16T06:51:02;100303.88;;;2.79;74.95
74218;BME280;62579;47.288;18.646;2023-03-16T06:53:27;100300.00;;;2.80;74.88
74218;BME280;62579;47.288;18.646;2023-03-16T06:55:52;100311.63;;;2.89;74.38
74218;BME280;62579;47.288;18.646;2023-03-16T06:58:17;100317.28;;;3.04;74.41
74218;BME280;62579;47.288;18.646;2023-03-16T07:00:43;100332.22;;;3.05;73.54
74218;BME280;62579;47.288;18.646;2023-03-16T07:03:08;100324.69;;;3.13;73.54
74218;BME280;62579;47.288;18.646;2023-03-16T07:05:34;100337.91;;;3.20;73.60
74218;BME280;62579;47.288;18.646;2023-03-16T07:07:59;100329.91;;;3.41;73.24
74218;BME280;62579;47.288;18.646;2023-03-16T07:10:25;100330.62;;;3.42;72.27
74218;BME280;62579;47.288;18.646;2023-03-16T07:12:50;100326.47;;;3.41;72.23
74218;BME280;62579;47.288;18.646;2023-03-16T07:15:15;100331.69;;;3.57;72.44
74218;BME280;62579;47.288;18.646;2023-03-16T07:17:41;100334.41;;;3.79;71.98
74218;BME280;62579;47.288;18.646;2023-03-16T07:20:07;100331.81;;;3.97;70.17
74218;BME280;62579;47.288;18.646;2023-03-16T07:22:34;100331.72;;;4.00;70.48
74218;BME280;62579;47.288;18.646;2023-03-16T07:25:00;100335.50;;;4.12;69.25
74218;BME280;62579;47.288;18.646;2023-03-16T07:27:25;100344.44;;;4.31;66.90
74218;BME280;62579;47.288;18.646;2023-03-16T07:29:50;100337.19;;;4.18;66.15
74218;BME280;62579;47.288;18.646;2023-03-16T07:32:19;100335.31;;;4.28;67.61
74218;BME280;62579;47.288;18.646;2023-03-16T07:34:44;100349.44;;;4.41;66.92
74218;BME280;62579;47.288;18.646;2023-03-16T07:37:09;100357.09;;;4.43;66.73
74218;BME280;62579;47.288;18.646;2023-03-16T07:39:35;100359.50;;;4.50;66.22
74218;BME280;62579;47.288;18.646;2023-03-16T07:42:00;100363.28;;;4.52;65.64
74218;BME280;62579;47.288;18.646;2023-03-16T07:44:26;100362.44;;;4.64;65.27
74218;BME280;62579;47.288;18.646;2023-03-16T07:46:51;100367.25;;;4.69;64.59
74218;BME280;62579;47.288;18.646;2023-03-16T07:49:16;100376.84;;;4.70;63.99
74218;BME280;62579;47.288;18.646;2023-03-16T07:51:41;100368.06;;;4.88;64.54
74218;BME280;62579;47.288;18.646;2023-03-16T07:54:07;100373.34;;;5.01;62.61
74218;BME280;62579;47.288;18.646;2023-03-16T07:56:32;100377.44;;;5.05;62.47
74218;BME280;62579;47.288;18.646;2023-03-16T07:58:57;100378.81;;;5.19;60.63
74218;BME280;62579;47.288;18.646;2023-03-16T08:01:22;100373.22;;;5.04;60.92
74218;BME280;62579;47.288;18.646;2023-03-16T08:03:48;100388.66;;;5.04;61.75
74218;BME280;62579;47.288;18.646;2023-03-16T08:06:13;100376.25;;;5.15;61.46
74218;BME280;62579;47.288;18.646;2023-03-16T08:08:38;100382.75;;;5.27;60.06
74218;BME280;62579;47.288;18.646;2023-03-16T08:11:04;100386.59;;;5.17;60.17
74218;BME280;62579;47.288;18.646;2023-03-16T08:13:29;100383.16;;;5.16;60.36
74218;BME280;62579;47.288;18.646;2023-03-16T08:15:54;100385.28;;;5.30;60.99
74218;BME280;62579;47.288;18.646;2023-03-16T08:18:26;100379.28;;;5.35;59.78
74218;BME280;62579;47.288;18.646;2023-03-16T08:20:51;100385.00;;;5.37;60.06
74218;BME280;62579;47.288;18.646;2023-03-16T08:23:17;100384.84;;;5.32;59.87
74218;BME280;62579;47.288;18.646;2023-03-16T08:25:42;100388.63;;;5.53;59.56
74218;BME280;62579;47.288;18.646;2023-03-16T08:28:07;100388.34;;;5.69;58.86
74218;BME280;62579;47.288;18.646;2023-03-16T08:30:33;100387.59;;;5.77;58.66
74218;BME280;62579;47.288;18.646;2023-03-16T08:32:59;100379.03;;;5.79;57.51
74218;BME280;62579;47.288;18.646;2023-03-16T08:35:25;100384.16;;;5.95;58.86
74218;BME280;62579;47.288;18.646;2023-03-16T08:37:52;100383.56;;;6.00;58.21
74218;BME280;62579;47.288;18.646;2023-03-16T08:40:18;100379.50;;;6.14;57.38
74218;BME280;62579;47.288;18.646;2023-03-16T08:42:46;100372.44;;;6.16;55.89
74218;BME280;62579;47.288;18.646;2023-03-16T08:45:14;100372.28;;;6.20;55.99
74218;BME280;62579;47.288;18.646;2023-03-16T08:47:39;100379.19;;;6.30;55.03
74218;BME280;62579;47.288;18.646;2023-03-16T08:50:05;100385.03;;;6.28;54.07
74218;BME280;62579;47.288;18.646;2023-03-16T08:52:31;100381.41;;;6.40;55.32
74218;BME280;62579;47.288;18.646;2023-03-16T08:54:56;100377.50;;;6.41;55.05
74218;BME280;62579;47.288;18.646;2023-03-16T08:57:22;100385.00;;;6.46;54.66
74218;BME280;62579;47.288;18.646;2023-03-16T08:59:47;100382.09;;;6.59;54.38
74218;BME280;62579;47.288;18.646;2023-03-16T09:02:12;100377.03;;;6.52;53.22
74218;BME280;62579;47.288;18.646;2023-03-16T09:04:40;100380.78;;;6.54;53.47
74218;BME280;62579;47.288;18.646;2023-03-16T09:07:05;100382.56;;;6.57;53.52
74218;BME280;62579;47.288;18.646;2023-03-16T09:09:31;100376.53;;;6.72;52.40
74218;BME280;62579;47.288;18.646;2023-03-16T09:11:56;100386.50;;;6.89;51.97
74218;BME280;62579;47.288;18.646;2023-03-16T09:14:22;100385.59;;;6.92;51.47
74218;BME280;62579;47.288;18.646;2023-03-16T09:16:48;100389.50;;;6.91;52.49
74218;BME280;62579;47.288;18.646;2023-03-16T09:19:13;100391.91;;;6.89;52.28
74218;BME280;62579;47.288;18.646;2023-03-16T09:21:39;100396.59;;;7.21;50.69
74218;BME280;62579;47.288;18.646;2023-03-16T09:24:04;100398.69;;;7.50;49.54
74218;BME280;62579;47.288;18.646;2023-03-16T09:26:32;100400.25;;;7.42;49.60
74218;BME280;62579;47.288;18.646;2023-03-16T09:28:57;100402.84;;;7.37;46.86
74218;BME280;62579;47.288;18.646;2023-03-16T09:31:22;100409.06;;;7.52;46.00
74218;BME280;62579;47.288;18.646;2023-03-16T09:33:48;100407.38;;;7.54;44.55
74218;BME280;62579;47.288;18.646;2023-03-16T09:36:13;100399.31;;;7.45;44.49
74218;BME280;62579;47.288;18.646;2023-03-16T09:38:39;100406.72;;;7.83;44.34
74218;BME280;62579;47.288;18.646;2023-03-16T09:48:29;100418.41;;;7.89;45.58
74218;BME280;62579;47.288;18.646;2023-03-16T09:50:56;100414.19;;;8.12;45.63
74218;BME280;62579;47.288;18.646;2023-03-16T09:53:27;100413.37;;;7.97;45.16
74218;BME280;62579;47.288;18.646;2023-03-16T09:55:58;100411.00;;;8.13;43.92
74218;BME280;62579;47.288;18.646;2023-03-16T09:58:25;100404.22;;;8.32;44.31
74218;BME280;62579;47.288;18.646;2023-03-16T10:00:58;100417.38;;;8.25;44.40
74218;BME280;62579;47.288;18.646;2023-03-16T10:03:29;100421.16;;;8.27;44.77
74218;BME280;62579;47.288;18.646;2023-03-16T10:05:58;100416.75;;;8.30;43.82
74218;BME280;62579;47.288;18.646;2023-03-16T10:08:25;100419.59;;;8.12;43.75
74218;BME280;62579;47.288;18.646;2023-03-16T10:15:53;100417.50;;;8.45;43.72
74218;BME280;62579;47.288;18.646;2023-03-16T10:18:21;100423.47;;;8.34;43.86
74218;BME280;62579;47.288;18.646;2023-03-16T10:20:48;100435.75;;;8.59;43.55
74218;BME280;62579;47.288;18.646;2023-03-16T10:23:16;100421.34;;;8.53;43.15
74218;BME280;62579;47.288;18.646;2023-03-16T10:25:46;100433.22;;;8.56;41.48
74218;BME280;62579;47.288;18.646;2023-03-16T10:28:16;100421.16;;;8.42;41.97
74218;BME280;62579;47.288;18.646;2023-03-16T10:30:42;100423.22;;;8.76;43.30
74218;BME280;62579;47.288;18.646;2023-03-16T10:41:03;100417.19;;;9.01;39.92
74218;BME280;62579;47.288;18.646;2023-03-16T10:43:30;100427.25;;;9.16;39.73
74218;BME280;62579;47.288;18.646;2023-03-16T10:46:02;100429.72;;;8.99;39.58
74218;BME280;62579;47.288;18.646;2023-03-16T10:48:29;100419.03;;;9.10;39.12
74218;BME280;62579;47.288;18.646;2023-03-16T10:50:57;100415.81;;;9.26;40.04
74218;BME280;62579;47.288;18.646;2023-03-16T10:53:28;100423.41;;;9.22;39.40
74218;BME280;62579;47.288;18.646;2023-03-16T10:55:57;100418.50;;;9.06;38.21
74218;BME280;62579;47.288;18.646;2023-03-16T10:58:23;100417.81;;;9.11;38.09
74218;BME280;62579;47.288;18.646;2023-03-16T11:00:50;100415.66;;;9.15;38.39
74218;BME280;62579;47.288;18.646;2023-03-16T11:03:58;100414.38;;;9.31;38.04
74218;BME280;62579;47.288;18.646;2023-03-16T11:06:05;100411.62;;;9.45;36.50
74218;BME280;62579;47.288;18.646;2023-03-16T11:08:32;100416.50;;;9.41;37.26
74218;BME280;62579;47.288;18.646;2023-03-16T11:10:59;100418.59;;;9.32;36.67
74218;BME280;62579;47.288;18.646;2023-03-16T11:13:34;100418.84;;;9.48;37.53
74218;BME280;62579;47.288;18.646;2023-03-16T11:16:06;100406.06;;;9.54;37.81
74218;BME280;62579;47.288;18.646;2023-03-16T11:18:42;100410.19;;;9.50;37.79
74218;BME280;62579;47.288;18.646;2023-03-16T11:21:12;100413.87;;;9.67;34.47
74218;BME280;62579;47.288;18.646;2023-03-16T11:23:42;100405.59;;;9.76;36.62
74218;BME280;62579;47.288;18.646;2023-03-16T11:26:14;100402.34;;;9.98;33.37
74218;BME280;62579;47.288;18.646;2023-03-16T11:28:45;100394.62;;;9.91;33.97
74218;BME280;62579;47.288;18.646;2023-03-16T11:33:44;100396.25;;;10.03;35.78
74218;BME280;62579;47.288;18.646;2023-03-16T11:43:55;100389.44;;;9.93;31.81
74218;BME280;62579;47.288;18.646;2023-03-16T11:58:56;100383.63;;;10.25;33.13
74218;BME280;62579;47.288;18.646;2023-03-16T12:06:56;100372.66;;;10.40;30.64
74218;BME280;62579;47.288;18.646;2023-03-16T12:14:52;100389.78;;;10.20;31.02
74218;BME280;62579;47.288;18.646;2023-03-16T12:17:23;100355.87;;;10.47;31.27
74218;BME280;62579;47.288;18.646;2023-03-16T12:22:32;100378.56;;;10.39;30.17
74218;BME280;62579;47.288;18.646;2023-03-16T12:24:58;100356.38;;;10.46;29.98
74218;BME280;62579;47.288;18.646;2023-03-16T12:27:25;100369.34;;;10.31;29.00
74218;BME280;62579;47.288;18.646;2023-03-16T12:32:40;100360.88;;;10.54;28.42
74218;BME280;62579;47.288;18.646;2023-03-16T12:40:14;100379.47;;;10.56;28.42
74218;BME280;62579;47.288;18.646;2023-03-16T12:42:52;100367.41;;;10.68;29.17
74218;BME280;62579;47.288;18.646;2023-03-16T12:45:37;100366.41;;;10.65;28.69
74218;BME280;62579;47.288;18.646;2023-03-16T12:50:33;100361.19;;;10.99;30.50
74218;BME280;62579;47.288;18.646;2023-03-16T12:52:58;100353.16;;;10.84;30.34
74218;BME280;62579;47.288;18.646;2023-03-16T12:58:03;100359.81;;;11.14;28.54
74218;BME280;62579;47.288;18.646;2023-03-16T13:00:37;100361.28;;;11.10;28.91
74218;BME280;62579;47.288;18.646;2023-03-16T13:03:04;100366.50;;;11.13;27.68
74218;BME280;62579;47.288;18.646;2023-03-16T13:05:32;100347.44;;;11.19;27.69
74218;BME280;62579;47.288;18.646;2023-03-16T13:08:08;100341.03;;;11.27;28.66
74218;BME280;62579;47.288;18.646;2023-03-16T13:10:34;100342.97;;;11.16;27.84
74218;BME280;62579;47.288;18.646;2023-03-16T13:13:11;100349.47;;;10.50;29.08
74218;BME280;62579;47.288;18.646;2023-03-16T13:15:39;100352.59;;;10.69;29.14
74218;BME280;62579;47.288;18.646;2023-03-16T13:18:17;100366.72;;;10.73;28.18
74218;BME280;62579;47.288;18.646;2023-03-16T13:28:35;100372.25;;;10.53;25.66
74218;BME280;62579;47.288;18.646;2023-03-16T13:31:00;100364.78;;;10.48;27.06
74218;BME280;62579;47.288;18.646;2023-03-16T13:33:27;100362.59;;;10.52;27.42
74218;BME280;62579;47.288;18.646;2023-03-16T13:35:55;100358.09;;;10.80;28.18
74218;BME280;62579;47.288;18.646;2023-03-16T13:38:21;100355.69;;;10.88;27.37
74218;BME280;62579;47.288;18.646;2023-03-16T13:40:51;100366.13;;;10.95;26.92
74218;BME280;62579;47.288;18.646;2023-03-16T13:43:20;100356.50;;;10.99;27.89
74218;BME280;62579;47.288;18.646;2023-03-16T13:45:47;100348.94;;;11.20;27.76
74218;BME280;62579;47.288;18.646;2023-03-16T13:48:12;100338.09;;;11.31;27.69
74218;BME280;62579;47.288;18.646;2023-03-16T13:50:38;100342.81;;;11.36;27.36
74218;BME280;62579;47.288;18.646;2023-03-16T13:53:09;100342.91;;;11.05;27.93
74218;BME280;62579;47.288;18.646;2023-03-16T13:55:38;100349.59;;;11.04;25.31
74218;BME280;62579;47.288;18.646;2023-03-16T13:58:04;100351.91;;;11.22;25.93
74218;BME280;62579;47.288;18.646;2023-03-16T14:00:30;100352.37;;;11.15;28.38
74218;BME280;62579;47.288;18.646;2023-03-16T14:02:57;100345.81;;;10.96;28.95
74218;BME280;62579;47.288;18.646;2023-03-16T14:05:33;100343.22;;;11.12;28.27
74218;BME280;62579;47.288;18.646;2023-03-16T14:07:59;100353.53;;;11.03;26.87
74218;BME280;62579;47.288;18.646;2023-03-16T14:10:26;100353.31;;;11.06;27.51
74218;BME280;62579;47.288;18.646;2023-03-16T14:12:54;100349.47;;;11.24;27.79
74218;BME280;62579;47.288;18.646;2023-03-16T14:15:20;100364.97;;;11.07;27.41
74218;BME280;62579;47.288;18.646;2023-03-16T14:17:46;100347.69;;;11.15;28.17
74218;BME280;62579;47.288;18.646;2023-03-16T14:20:29;100353.62;;;11.19;27.65
74218;BME280;62579;47.288;18.646;2023-03-16T14:22:54;100369.59;;;10.95;27.85